Muir Army Air Field (Fort Indiantown Gap) Airport
KMUI : rendu visible

Aérodrome :











RETROUVEZ-NOUS SUR...

 
LOGIN :

S'inscrire | Disclaimer

   EN    FR    IT 

 









Légende :    VFR   VFR Marginal   IFR   IFR Intensif   IFR Très Intensif
Visi : 
Plafond : 
>= 8 km
>= 3000ft
5 à 8 km
1000 à 3000 ft
1500m à 5 km
500 à 1000 ft
800 à 1500m
200 à 500 ft
< 800m
< 200 ft
Symboles :   Orages  Brouillard  Fortes neiges  Fortes précipitations  Vent > 20 kt






- Altitude de l'aérodrome : 488 ft


KMUI - Muir Army Air Field (Fort Indiantown Gap)

DERNIER METAR :
  • 100656Z AUTO 21004KT 10SM OVC007 09/09 A2974 RMK AO2 SLP076 T00890087

METARs EXPIRÉS :
  • 100556Z AUTO 22005KT 10SM OVC007 09/09 A2974 RMK AO2 SLP076 60008 T00880086 10088 20084 57003
  • 100456Z AUTO 22004KT 10SM OVC008 08/08 A2974 RMK AO2 SLP076 T00840083 400880012
  • 100420Z AUTO 22006KT 10SM OVC008 09/08 A2974 RMK AO2 SLP076

TAF AMD TAF KMUI
Valide du 09 à 22h jusqu'au 11 à 01h UTC


092200Z 0922/1101 18006KT 4800 -RA BR OVC009 QNH2975INS
BECMG 1003/1004 18009KT 9999 NSW OVC010 QNH2972INS
BECMG 1014/1015 25009KT 9000 -RA OVC008 QNH2987INS TX11/1018Z TN07/0922Z LAST NO AMDS AFT 1005 NEXT 1011



MET'MAP, la Météo Aéronautique d'un coup d'oeil ! - Copyright ORBIFLY Décembre 2007 - Disclaimer

ORBIFLY MET'MAP TEAM :

Programmation & Développement : Alexandra Zaïnal
Sur une idée originale de : Baudouin d'Aumeries
Assistance à la programmation : Marc-Olivier Méhu
Soutien technique & logistique : Manuel Goepfert

Contact : metmap@orbifly.com




SOURCES & CREDITS :

   NOAA       Earth
Advisory